createdAt,value
2023-03-12T00:01:12.170Z,99410.06
2023-03-12T00:03:41.203Z,99411.09
2023-03-12T00:06:10.960Z,99408.09
2023-03-12T00:08:38.731Z,99413.38
2023-03-12T00:11:10.721Z,99409.25
2023-03-12T00:13:39.128Z,99406.56
2023-03-12T00:16:09.530Z,99407.38
2023-03-12T00:18:37.039Z,99412.59
2023-03-12T00:21:07.000Z,99407.25
2023-03-12T00:23:35.242Z,99409.19
2023-03-12T00:26:03.451Z,99406.28
2023-03-12T00:28:31.053Z,99409.84
2023-03-12T00:30:59.260Z,99406.06
2023-03-12T00:33:27.125Z,99399.41
2023-03-12T00:35:55.202Z,99404.66
2023-03-12T00:38:24.066Z,99394.25
2023-03-12T00:40:51.513Z,99394.28
2023-03-12T00:43:18.984Z,99384.31
2023-03-12T00:45:46.477Z,99381.59
2023-03-12T00:48:13.974Z,99372.91
2023-03-12T00:50:41.598Z,99359.78
2023-03-12T00:53:09.110Z,99362.38
2023-03-12T00:55:37.956Z,99364.03
2023-03-12T00:58:05.482Z,99363.09
2023-03-12T01:00:33.033Z,99360.75
2023-03-12T01:03:00.491Z,99353.22
2023-03-12T01:05:28.319Z,99353.63
2023-03-12T01:07:55.988Z,99350.19
2023-03-12T01:10:23.847Z,99354.00
2023-03-12T01:12:52.720Z,99352.09
2023-03-12T01:15:20.230Z,99350.41
2023-03-12T01:17:47.727Z,99351.34
2023-03-12T01:20:15.696Z,99348.34
2023-03-12T01:22:44.054Z,99348.66
2023-03-12T01:25:12.550Z,99347.75
2023-03-12T01:27:40.035Z,99352.09
2023-03-12T01:30:11.454Z,99351.81
2023-03-12T01:32:39.125Z,99350.09
2023-03-12T01:35:07.650Z,99350.78
2023-03-12T01:37:35.393Z,99337.47
2023-03-12T01:40:03.033Z,99332.91
2023-03-12T01:42:30.570Z,99325.81
2023-03-12T01:45:00.030Z,99329.09
2023-03-12T01:47:31.727Z,99329.88
2023-03-12T01:50:01.618Z,99320.16
2023-03-12T01:52:31.609Z,99327.69
2023-03-12T01:55:03.958Z,99319.22
2023-03-12T01:57:35.761Z,99323.72
2023-03-12T02:00:08.857Z,99316.38
2023-03-12T02:02:38.828Z,99309.63
2023-03-12T02:05:15.742Z,99302.00
2023-03-12T02:07:43.288Z,99294.00
2023-03-12T02:10:12.135Z,99289.19
2023-03-12T02:12:39.626Z,99274.25
2023-03-12T02:15:08.606Z,99281.72
2023-03-12T02:17:39.361Z,99287.75
2023-03-12T02:20:16.207Z,99293.34
2023-03-12T02:22:47.980Z,99289.81
2023-03-12T02:25:30.680Z,99293.16
2023-03-12T02:27:59.696Z,99296.09
2023-03-12T02:30:28.959Z,99289.88
2023-03-12T02:32:57.200Z,99280.75
2023-03-12T02:35:24.707Z,99279.13
2023-03-12T02:37:54.055Z,99265.78
2023-03-12T02:40:30.043Z,99272.75
2023-03-12T02:42:58.127Z,99281.69
2023-03-12T02:45:26.835Z,99280.94
2023-03-12T02:47:54.335Z,99279.19
2023-03-12T02:50:22.128Z,99263.19
2023-03-12T02:52:49.631Z,99275.78
2023-03-12T02:55:17.126Z,99270.38
2023-03-12T02:57:45.903Z,99272.69
2023-03-12T03:00:14.529Z,99264.91
2023-03-12T03:02:43.070Z,99266.19
2023-03-12T03:05:12.046Z,99259.84
2023-03-12T03:07:39.571Z,99254.56
2023-03-12T03:10:08.120Z,99257.06
2023-03-12T03:12:36.741Z,99248.22
2023-03-12T03:15:06.660Z,99240.47
2023-03-12T03:17:34.153Z,99236.91
2023-03-12T03:20:01.679Z,99238.03
2023-03-12T03:22:29.135Z,99237.06
2023-03-12T03:24:56.556Z,99237.19
2023-03-12T03:27:24.124Z,99243.22
2023-03-12T03:29:51.769Z,99242.25
2023-03-12T03:32:20.600Z,99237.69
2023-03-12T03:34:48.160Z,99233.50
2023-03-12T03:37:15.633Z,99236.09
2023-03-12T03:39:43.252Z,99223.50
2023-03-12T03:42:10.689Z,99226.91
2023-03-12T03:44:38.136Z,99222.44
2023-03-12T03:47:05.744Z,99213.56
2023-03-12T03:49:34.520Z,99222.31
2023-03-12T03:52:01.966Z,99222.31
2023-03-12T03:54:31.004Z,99221.34
2023-03-12T03:56:58.462Z,99210.22
2023-03-12T03:59:26.175Z,99210.81
2023-03-12T04:01:53.744Z,99213.22
2023-03-12T04:04:21.840Z,99215.81
2023-03-12T04:06:50.672Z,99208.03
2023-03-12T04:09:18.156Z,99209.63
2023-03-12T04:11:45.642Z,99211.44
2023-03-12T04:14:13.094Z,99202.34
2023-03-12T04:16:40.574Z,99202.66
2023-03-12T04:19:08.138Z,99216.22
2023-03-12T04:21:35.662Z,99206.72
2023-03-12T04:24:04.927Z,99209.00
2023-03-12T04:26:32.508Z,99207.28
2023-03-12T04:29:01.231Z,99202.69
2023-03-12T04:31:28.727Z,99200.81
2023-03-12T04:33:56.206Z,99203.47
2023-03-12T04:36:24.535Z,99190.59
2023-03-12T04:38:52.135Z,99199.09
2023-03-12T04:41:20.972Z,99186.66
2023-03-12T04:43:48.541Z,99196.22
2023-03-12T04:46:16.254Z,99196.03
2023-03-12T04:48:43.920Z,99195.19
2023-03-12T04:51:11.425Z,99189.56
2023-03-12T04:53:40.392Z,99189.72
2023-03-12T04:56:08.310Z,99190.13
2023-03-12T04:58:37.543Z,99190.41
2023-03-12T05:01:06.548Z,99192.56
2023-03-12T05:03:34.159Z,99189.84
2023-03-12T05:06:01.690Z,99186.47
2023-03-12T05:08:29.154Z,99182.34
2023-03-12T05:10:56.641Z,99183.53
2023-03-12T05:13:24.369Z,99172.22
2023-03-12T05:15:53.478Z,99168.31
2023-03-12T05:18:21.500Z,99165.00
2023-03-12T05:20:58.271Z,99153.47
2023-03-12T05:23:25.759Z,99146.31
2023-03-12T05:25:53.237Z,99143.34
2023-03-12T05:28:21.450Z,99139.66
2023-03-12T05:30:48.947Z,99144.84
2023-03-12T05:33:17.777Z,99139.19
2023-03-12T05:35:45.292Z,99137.84
2023-03-12T05:38:12.792Z,99131.59
2023-03-12T05:40:40.310Z,99125.72
2023-03-12T05:43:07.813Z,99132.91
2023-03-12T05:45:35.479Z,99136.78
2023-03-12T05:48:03.205Z,99134.50
2023-03-12T05:50:32.009Z,99123.88
2023-03-12T05:52:59.510Z,99128.66
2023-03-12T05:55:27.034Z,99122.00
2023-03-12T05:57:54.505Z,99119.16
2023-03-12T06:00:22.724Z,99127.13
2023-03-12T06:02:50.180Z,99121.38
2023-03-12T06:05:17.804Z,99116.09
2023-03-12T06:07:46.564Z,99113.78
2023-03-12T06:10:14.057Z,99112.53
2023-03-12T06:12:41.627Z,99102.88
2023-03-12T06:15:10.274Z,99085.97
2023-03-12T06:17:37.698Z,99096.22
2023-03-12T06:20:06.086Z,99095.63
2023-03-12T06:22:33.471Z,99085.41
2023-03-12T06:25:02.324Z,99071.41
2023-03-12T06:27:30.155Z,99065.28
2023-03-12T06:29:57.607Z,99060.03
2023-03-12T06:32:26.032Z,99058.22
2023-03-12T06:34:53.522Z,99065.28
2023-03-12T06:37:20.990Z,99082.66
2023-03-12T06:39:48.425Z,99078.41
2023-03-12T06:42:18.588Z,99070.34
2023-03-12T06:44:46.330Z,99070.97
2023-03-12T06:47:15.321Z,99078.56
2023-03-12T06:49:43.988Z,99074.19
2023-03-12T06:52:11.600Z,99084.34
2023-03-12T06:54:39.198Z,99081.97
2023-03-12T06:57:06.695Z,99081.00
2023-03-12T06:59:35.577Z,99072.06
2023-03-12T07:02:03.255Z,99069.28
2023-03-12T07:04:30.778Z,99064.78
2023-03-12T07:06:58.198Z,99065.94
2023-03-12T07:09:25.655Z,99067.88
2023-03-12T07:11:53.099Z,99058.91
2023-03-12T07:14:21.337Z,99059.25
2023-03-12T07:16:50.151Z,99043.00
2023-03-12T07:19:19.299Z,99035.47
2023-03-12T07:21:46.702Z,99032.94
2023-03-12T07:24:14.127Z,99038.63
2023-03-12T07:26:43.560Z,99043.97
2023-03-12T07:29:11.385Z,99036.69
2023-03-12T07:31:38.966Z,99042.50
2023-03-12T07:34:07.846Z,99040.53
2023-03-12T07:36:35.481Z,99035.25
2023-03-12T07:39:04.425Z,99038.91
2023-03-12T07:41:31.899Z,99038.47
2023-03-12T07:43:59.364Z,99051.66
2023-03-12T07:46:26.828Z,99041.84
2023-03-12T07:48:54.232Z,99037.03
2023-03-12T07:51:23.025Z,99032.31
2023-03-12T07:53:50.542Z,99026.13
2023-03-12T07:56:18.126Z,99029.81
2023-03-12T07:58:46.434Z,99026.72
2023-03-12T08:01:14.443Z,99038.63
2023-03-12T08:03:42.952Z,99030.72
2023-03-12T08:06:10.715Z,99033.19
2023-03-12T08:08:41.779Z,99034.84
2023-03-12T08:11:10.206Z,99034.72
2023-03-12T08:13:37.709Z,99042.94
2023-03-12T08:16:07.651Z,99042.41
2023-03-12T08:18:36.808Z,99043.16
2023-03-12T08:21:04.640Z,99040.13
2023-03-12T08:23:32.200Z,99020.25
2023-03-12T08:26:01.037Z,99030.81
2023-03-12T08:28:28.708Z,99032.06
2023-03-12T08:31:00.069Z,99034.28
2023-03-12T08:33:27.752Z,99047.06
2023-03-12T08:35:55.264Z,99042.94
2023-03-12T08:38:22.801Z,99025.84
2023-03-12T08:40:56.329Z,99023.59
2023-03-12T08:43:25.285Z,99021.38
2023-03-12T08:45:56.121Z,99018.81
2023-03-12T08:48:23.653Z,99031.63
2023-03-12T08:50:51.199Z,99025.06
2023-03-12T08:53:18.790Z,99015.59
2023-03-12T08:55:46.573Z,99015.59
2023-03-12T08:58:13.996Z,99016.84
2023-03-12T09:00:42.817Z,99008.75
2023-03-12T09:03:13.985Z,99012.72
2023-03-12T09:05:41.738Z,99012.38
2023-03-12T09:08:09.694Z,99010.56
2023-03-12T09:10:37.720Z,99020.34
2023-03-12T09:13:05.958Z,99008.84
2023-03-12T09:15:33.490Z,99011.31
2023-03-12T09:18:02.273Z,99010.81
2023-03-12T09:20:29.737Z,99009.28
2023-03-12T09:22:57.152Z,99015.06
2023-03-12T09:25:24.765Z,99010.13
2023-03-12T09:27:52.219Z,99022.44
2023-03-12T09:30:21.743Z,99020.25
2023-03-12T09:32:49.342Z,99017.69
2023-03-12T09:35:18.485Z,99014.31
2023-03-12T09:37:49.534Z,99019.41
2023-03-12T09:40:18.835Z,99016.13
2023-03-12T09:42:51.373Z,99013.31
2023-03-12T09:45:23.520Z,99004.13
2023-03-12T09:47:53.794Z,99008.41
2023-03-12T09:50:27.825Z,99008.75
2023-03-12T09:53:00.500Z,99009.16
2023-03-12T09:55:29.798Z,99012.06
2023-03-12T09:57:59.069Z,99018.91
2023-03-12T10:00:31.783Z,99023.09
2023-03-12T10:03:21.993Z,99026.34
2023-03-12T10:06:10.991Z,99023.84
2023-03-12T10:08:52.752Z,99021.34
2023-03-12T10:11:30.763Z,99019.34
2023-03-12T10:14:13.089Z,99033.97
2023-03-12T10:16:52.687Z,99033.22
2023-03-12T10:19:35.792Z,99039.69
2023-03-12T10:22:15.294Z,99056.13
2023-03-12T10:24:54.497Z,99035.78
2023-03-12T10:27:25.641Z,99049.63
2023-03-12T10:29:55.779Z,99043.63
2023-03-12T10:32:27.370Z,99037.63
2023-03-12T10:34:57.598Z,99026.50
2023-03-12T10:37:30.184Z,99039.38
2023-03-12T10:39:59.535Z,99025.38
2023-03-12T10:42:29.868Z,99045.53
2023-03-12T10:45:01.943Z,99044.75
2023-03-12T10:47:35.563Z,99045.53
2023-03-12T10:50:15.210Z,99048.91
2023-03-12T10:52:44.642Z,99048.41
2023-03-12T10:55:20.458Z,99057.31
2023-03-12T10:57:48.378Z,99060.00
2023-03-12T11:00:21.014Z,99047.16
2023-03-12T11:02:58.674Z,99051.16
2023-03-12T11:05:29.317Z,99056.06
2023-03-12T11:08:00.262Z,99058.38
2023-03-12T11:10:41.720Z,99057.59
2023-03-12T11:13:24.222Z,99059.78
2023-03-12T11:15:53.046Z,99049.06
2023-03-12T11:18:33.083Z,99058.38
2023-03-12T11:21:16.745Z,99063.88
2023-03-12T11:23:49.489Z,99056.72
2023-03-12T11:26:20.020Z,99054.66
2023-03-12T11:28:50.103Z,99045.84
2023-03-12T11:31:24.029Z,99048.69
2023-03-12T11:33:54.322Z,99042.53
2023-03-12T11:36:32.418Z,99046.69
2023-03-12T11:39:04.753Z,99044.53
2023-03-12T11:41:42.367Z,99042.06
2023-03-12T11:44:22.972Z,99036.50
2023-03-12T11:47:03.857Z,99046.19
2023-03-12T11:49:42.703Z,99051.34
2023-03-12T11:52:16.577Z,99056.88
2023-03-12T11:55:16.787Z,99052.28
2023-03-12T11:57:57.959Z,99044.66
2023-03-12T12:00:32.491Z,99050.63
2023-03-12T12:03:28.152Z,99042.00
2023-03-12T12:06:01.741Z,99031.13
2023-03-12T12:08:43.632Z,99034.88
2023-03-12T12:11:20.686Z,99040.78
2023-03-12T12:14:00.553Z,99040.78
2023-03-12T12:16:45.554Z,99030.38
2023-03-12T12:19:26.779Z,99032.97
2023-03-12T12:22:07.361Z,99033.97
2023-03-12T12:24:47.531Z,99036.00
2023-03-12T12:27:21.618Z,99034.97
2023-03-12T12:30:08.159Z,99044.44
2023-03-12T12:32:49.199Z,99042.56
2023-03-12T12:35:28.307Z,99049.25
2023-03-12T12:37:59.353Z,99039.59
2023-03-12T12:40:30.744Z,99040.44
2023-03-12T12:43:10.184Z,99041.13
2023-03-12T12:45:41.268Z,99029.91
2023-03-12T12:48:13.936Z,99021.06
2023-03-12T12:50:41.624Z,99021.50
2023-03-12T12:53:16.613Z,99029.47
2023-03-12T12:55:51.924Z,99017.22
2023-03-12T12:58:24.214Z,99017.69
2023-03-12T13:00:56.496Z,99019.38
2023-03-12T13:03:27.051Z,99015.22
2023-03-12T13:05:57.307Z,99011.78
2023-03-12T13:08:37.384Z,99009.34
2023-03-12T13:11:18.336Z,99020.47
2023-03-12T13:13:51.466Z,99012.56
2023-03-12T13:16:28.775Z,98996.47
2023-03-12T13:19:01.404Z,98997.81
2023-03-12T13:21:40.232Z,99004.13
2023-03-12T13:24:20.113Z,99002.88
2023-03-12T13:26:54.506Z,98984.03
2023-03-12T13:29:37.321Z,98982.59
2023-03-12T13:32:06.578Z,98977.34
2023-03-12T13:34:56.963Z,98981.03
2023-03-12T13:38:00.179Z,98968.22
2023-03-12T13:40:55.049Z,98961.22
2023-03-12T13:43:48.184Z,98970.56
2023-03-12T13:46:40.263Z,98965.63
2023-03-12T13:49:19.305Z,98970.28
2023-03-12T13:51:55.816Z,98959.75
2023-03-12T13:54:29.489Z,98958.38
2023-03-12T13:57:04.348Z,98953.47
2023-03-12T13:59:32.901Z,98944.44
2023-03-12T14:02:06.774Z,98951.47
2023-03-12T14:04:38.150Z,98961.16
2023-03-12T14:07:26.426Z,98960.19
2023-03-12T14:10:08.717Z,98952.25
2023-03-12T14:12:42.514Z,98950.81
2023-03-12T14:15:22.745Z,98946.31
2023-03-12T14:17:58.112Z,98946.69
2023-03-12T14:20:25.909Z,98951.84
2023-03-12T14:22:56.687Z,98954.81
2023-03-12T14:25:33.920Z,98957.84
2023-03-12T14:28:02.258Z,98957.94
2023-03-12T14:30:44.031Z,98950.78
2023-03-12T14:33:14.688Z,98956.88
2023-03-12T14:35:46.205Z,98954.69
2023-03-12T14:38:17.715Z,98960.50
2023-03-12T14:40:50.002Z,98964.19
2023-03-12T14:43:27.257Z,98946.72
2023-03-12T14:45:58.866Z,98954.34
2023-03-12T14:48:31.536Z,98945.47
2023-03-12T14:51:00.502Z,98959.00
2023-03-12T14:53:30.417Z,98972.97
2023-03-12T14:56:07.560Z,98969.72
2023-03-12T14:58:36.657Z,98969.16
2023-03-12T15:01:06.676Z,98974.97
2023-03-12T15:03:42.988Z,98970.22
2023-03-12T15:06:18.748Z,98981.06
2023-03-12T15:08:46.875Z,98986.56
2023-03-12T15:11:14.525Z,98983.13
2023-03-12T15:13:42.130Z,98970.78
2023-03-12T15:16:10.138Z,98982.97
2023-03-12T15:18:39.207Z,98971.75
2023-03-12T15:21:07.639Z,98977.53
2023-03-12T15:23:38.519Z,98972.09
2023-03-12T15:26:11.048Z,98962.97
2023-03-12T15:28:39.250Z,98966.63
2023-03-12T15:31:11.707Z,98969.69
2023-03-12T15:33:41.531Z,98972.47
2023-03-12T15:36:26.336Z,98978.66
2023-03-12T15:38:56.252Z,98976.66
2023-03-12T15:41:28.745Z,98980.53
2023-03-12T15:43:58.526Z,98978.19
2023-03-12T15:46:27.466Z,98980.16
2023-03-12T15:48:59.048Z,98971.06
2023-03-12T15:51:33.210Z,98982.81
2023-03-12T15:54:05.754Z,98982.75
2023-03-12T15:56:35.769Z,98984.19
2023-03-12T15:59:06.961Z,98991.47
2023-03-12T16:01:46.573Z,98988.06
2023-03-12T16:04:15.552Z,98987.03
2023-03-12T16:06:43.934Z,98990.16
2023-03-12T16:09:16.961Z,98996.53
2023-03-12T16:11:45.034Z,98976.47
2023-03-12T16:14:18.131Z,98975.44
2023-03-12T16:16:46.132Z,98982.84
2023-03-12T16:19:15.559Z,98977.81
2023-03-12T16:21:43.812Z,98980.47
2023-03-12T16:24:11.945Z,98978.59
2023-03-12T16:26:48.789Z,98974.22
2023-03-12T16:29:17.988Z,98982.56
2023-03-12T16:31:45.703Z,98983.34
2023-03-12T16:34:14.822Z,98981.06
2023-03-12T16:36:42.262Z,98995.59
2023-03-12T16:39:09.692Z,98993.16
2023-03-12T16:41:37.193Z,98995.31
2023-03-12T16:44:08.260Z,98997.22
2023-03-12T16:46:35.921Z,98993.69
2023-03-12T16:49:04.165Z,98997.00
2023-03-12T16:51:33.041Z,99001.09
2023-03-12T16:54:09.415Z,98995.41
2023-03-12T16:56:42.079Z,99001.75
2023-03-12T16:59:18.387Z,99000.81
2023-03-12T17:01:45.977Z,98992.22
2023-03-12T17:04:13.579Z,98989.78
2023-03-12T17:06:42.389Z,98983.47
2023-03-12T17:09:09.930Z,98978.38
2023-03-12T17:11:38.834Z,98992.81
2023-03-12T17:14:17.140Z,99000.75
2023-03-12T17:16:45.211Z,99005.75
2023-03-12T17:19:12.785Z,99011.09
2023-03-12T17:21:42.031Z,99008.41
2023-03-12T17:24:11.448Z,99008.00
2023-03-12T17:26:38.944Z,99017.34
2023-03-12T17:29:06.631Z,99011.00
2023-03-12T17:31:36.010Z,99013.38
2023-03-12T17:34:03.909Z,99005.97
2023-03-12T17:36:31.570Z,99019.66
2023-03-12T17:39:00.408Z,99022.25
2023-03-12T17:41:27.916Z,99011.63
2023-03-12T17:43:58.660Z,99027.34
2023-03-12T17:46:26.253Z,99032.44
2023-03-12T17:48:54.054Z,99041.66
2023-03-12T17:51:21.878Z,99031.19
2023-03-12T17:53:49.442Z,99035.13
2023-03-12T17:56:19.008Z,99033.19
2023-03-12T17:58:46.639Z,99042.25
2023-03-12T18:01:14.879Z,99043.19
2023-03-12T18:03:43.798Z,99045.63
2023-03-12T18:06:11.631Z,99045.97
2023-03-12T18:08:39.146Z,99051.63
2023-03-12T18:11:06.664Z,99036.63
2023-03-12T18:13:35.531Z,99039.47
2023-03-12T18:16:03.198Z,99038.34
2023-03-12T18:18:30.697Z,99040.22
2023-03-12T18:20:58.197Z,99046.69
2023-03-12T18:23:25.813Z,99034.91
2023-03-12T18:25:53.367Z,99041.69
2023-03-12T18:28:20.928Z,99039.44
2023-03-12T18:30:50.209Z,99026.66
2023-03-12T18:33:17.907Z,99032.69
2023-03-12T18:35:45.713Z,99034.31
2023-03-12T18:38:13.524Z,99036.75
2023-03-12T18:40:41.116Z,99041.13
2023-03-12T18:43:08.773Z,99035.63
2023-03-12T18:45:36.253Z,99041.88
2023-03-12T18:48:07.440Z,99054.94
2023-03-12T18:50:34.904Z,99044.88
2023-03-12T18:53:02.407Z,99038.81
2023-03-12T18:55:29.863Z,99049.88
2023-03-12T18:57:57.337Z,99048.44
2023-03-12T19:00:25.027Z,99049.78
2023-03-12T19:02:52.566Z,99052.34
2023-03-12T19:05:21.515Z,99035.44
2023-03-12T19:07:49.219Z,99037.56
2023-03-12T19:10:17.310Z,99044.44
2023-03-12T19:12:52.610Z,99035.09
2023-03-12T19:15:21.524Z,99038.28
2023-03-12T19:17:49.012Z,99033.41
2023-03-12T19:20:17.033Z,99020.19
2023-03-12T19:22:45.891Z,99024.03
2023-03-12T19:25:13.849Z,99035.25
2023-03-12T19:27:41.336Z,99020.44
2023-03-12T19:30:10.311Z,99020.59
2023-03-12T19:32:43.602Z,99018.44
2023-03-12T19:35:14.140Z,99018.25
2023-03-12T19:37:42.081Z,99013.22
2023-03-12T19:40:13.124Z,99020.34
2023-03-12T19:42:40.599Z,99029.00
2023-03-12T19:45:08.942Z,99015.63
2023-03-12T19:47:36.428Z,99017.41
2023-03-12T19:50:03.954Z,99010.94
2023-03-12T19:52:31.436Z,99016.25
2023-03-12T19:55:04.735Z,99020.50
2023-03-12T19:57:34.577Z,99017.41
2023-03-12T20:00:02.110Z,99010.47
2023-03-12T20:02:30.002Z,99020.28
2023-03-12T20:04:57.556Z,99011.81
2023-03-12T20:07:25.709Z,99009.59
2023-03-12T20:09:53.219Z,99016.94
2023-03-12T20:12:20.811Z,99012.09
2023-03-12T20:14:49.765Z,99012.22
2023-03-12T20:17:17.535Z,99005.94
2023-03-12T20:19:45.303Z,99006.22
2023-03-12T20:22:12.795Z,99001.44
2023-03-12T20:24:40.284Z,99001.59
2023-03-12T20:27:07.772Z,98993.13
2023-03-12T20:29:35.296Z,98993.75
2023-03-12T20:32:04.378Z,98989.78
2023-03-12T20:34:31.949Z,98982.81
2023-03-12T20:36:59.437Z,98987.59
2023-03-12T20:39:27.215Z,98977.59
2023-03-12T20:41:54.676Z,98979.97
2023-03-12T20:44:22.159Z,98977.13
2023-03-12T20:46:49.673Z,98983.66
2023-03-12T20:49:18.575Z,98978.53
2023-03-12T20:51:46.378Z,98981.69
2023-03-12T20:54:13.835Z,98969.06
2023-03-12T20:56:43.569Z,98969.63
2023-03-12T20:59:11.155Z,98965.91
2023-03-12T21:01:38.681Z,98955.84
2023-03-12T21:04:06.272Z,98956.22
2023-03-12T21:06:35.063Z,98952.41
2023-03-12T21:09:02.726Z,98937.31
2023-03-12T21:11:31.214Z,98948.44
2023-03-12T21:13:58.702Z,98931.59
2023-03-12T21:16:26.197Z,98933.13
2023-03-12T21:18:56.475Z,98931.41
2023-03-12T21:21:24.117Z,98935.09
2023-03-12T21:23:52.939Z,98934.88
2023-03-12T21:26:20.660Z,98922.16
2023-03-12T21:28:48.270Z,98918.47
2023-03-12T21:31:17.483Z,98913.44
2023-03-12T21:33:45.213Z,98900.31
2023-03-12T21:36:14.382Z,98913.44
2023-03-12T21:38:43.525Z,98902.13
2023-03-12T21:41:14.004Z,98905.63
2023-03-12T21:43:41.801Z,98917.22
2023-03-12T21:46:11.678Z,98911.16
2023-03-12T21:48:39.950Z,98915.16
2023-03-12T21:51:09.309Z,98911.94
2023-03-12T21:53:37.721Z,98898.91
2023-03-12T21:56:06.652Z,98895.41
2023-03-12T21:58:36.509Z,98889.28
2023-03-12T22:01:05.925Z,98893.78
2023-03-12T22:03:33.599Z,98889.19
2023-03-12T22:06:01.335Z,98884.91
2023-03-12T22:08:28.820Z,98884.25
2023-03-12T22:10:56.552Z,98881.69
2023-03-12T22:13:23.997Z,98877.31
2023-03-12T22:15:56.562Z,98872.97
2023-03-12T22:18:24.678Z,98864.22
2023-03-12T22:20:52.780Z,98877.25
2023-03-12T22:23:20.753Z,98870.31
2023-03-12T22:25:48.625Z,98868.41
2023-03-12T22:28:16.506Z,98859.09
2023-03-12T22:30:44.637Z,98856.25
2023-03-12T22:33:14.040Z,98850.19
2023-03-12T22:35:45.575Z,98847.03
2023-03-12T22:38:13.578Z,98837.06
2023-03-12T22:40:41.627Z,98835.91
2023-03-12T22:43:09.135Z,98833.19
2023-03-12T22:45:36.784Z,98828.81
2023-03-12T22:48:04.831Z,98825.47
2023-03-12T22:50:33.616Z,98817.00
2023-03-12T22:53:01.109Z,98812.28
2023-03-12T22:55:28.554Z,98806.56
2023-03-12T22:57:55.987Z,98807.06
2023-03-12T23:00:23.859Z,98797.72
2023-03-12T23:02:51.720Z,98799.63
2023-03-12T23:05:19.328Z,98796.47
2023-03-12T23:07:48.218Z,98794.78
2023-03-12T23:10:15.798Z,98788.13
2023-03-12T23:12:43.340Z,98782.59
2023-03-12T23:15:11.333Z,98769.03
2023-03-12T23:17:38.873Z,98764.00
2023-03-12T23:20:07.956Z,98770.63
2023-03-12T23:22:35.553Z,98759.44
2023-03-12T23:25:04.770Z,98751.91
2023-03-12T23:27:32.310Z,98748.13
2023-03-12T23:29:59.783Z,98742.44
2023-03-12T23:32:27.379Z,98739.00
2023-03-12T23:34:55.258Z,98726.94
2023-03-12T23:37:22.906Z,98721.53
2023-03-12T23:39:54.896Z,98707.28
2023-03-12T23:42:24.118Z,98718.09
2023-03-12T23:44:51.587Z,98710.50
2023-03-12T23:47:19.055Z,98705.56
2023-03-12T23:49:46.503Z,98693.72
2023-03-12T23:52:14.022Z,98691.78
2023-03-12T23:54:41.558Z,98693.13
2023-03-12T23:57:09.024Z,98680.31
2023-03-12T23:59:37.891Z,98686.56
